createdAt,value
2022-09-17T00:05:26.112Z,98251.60
2022-09-17T00:15:31.857Z,98248.61
2022-09-17T00:25:38.773Z,98243.39
2022-09-17T00:35:44.647Z,98246.67
2022-09-17T00:45:53.418Z,98246.63
2022-09-17T00:56:03.322Z,98255.80
2022-09-17T01:06:19.649Z,98254.44
2022-09-17T01:16:35.441Z,98252.70
2022-09-17T01:26:59.743Z,98257.73
2022-09-17T01:37:11.719Z,98253.60
2022-09-17T01:47:21.755Z,98252.27
2022-09-17T01:57:33.768Z,98252.01
2022-09-17T02:07:46.338Z,98248.73
2022-09-17T02:17:55.656Z,98236.28
2022-09-17T02:28:06.141Z,98224.61
2022-09-17T02:38:11.970Z,98226.04
2022-09-17T02:48:57.336Z,98227.67
2022-09-17T02:59:13.627Z,98221.84
2022-09-17T03:09:19.297Z,98221.14
2022-09-17T03:19:24.929Z,98222.09
2022-09-17T03:29:30.671Z,98218.89
2022-09-17T03:39:36.287Z,98215.27
2022-09-17T03:49:41.910Z,98203.02
2022-09-17T03:59:47.592Z,98197.95
2022-09-17T04:09:53.284Z,98195.89
2022-09-17T04:19:59.326Z,98193.75
2022-09-17T04:30:05.167Z,98197.29
2022-09-17T04:40:12.391Z,98206.45
2022-09-17T04:50:18.522Z,98205.48
2022-09-17T05:00:25.815Z,98206.95
2022-09-17T05:10:31.449Z,98211.13
2022-09-17T05:20:37.125Z,98207.32
2022-09-17T05:30:42.880Z,98208.33
2022-09-17T05:40:49.222Z,98204.23
2022-09-17T05:50:55.445Z,98199.54
2022-09-17T06:01:03.040Z,98188.89
2022-09-17T06:11:09.737Z,98184.52
2022-09-17T06:21:15.636Z,98185.91
2022-09-17T06:31:21.366Z,98189.39
2022-09-17T06:41:27.330Z,98187.27
2022-09-17T06:51:32.929Z,98194.98
2022-09-17T07:01:38.610Z,98199.73
2022-09-17T07:11:44.385Z,98209.16
2022-09-17T07:21:51.804Z,98219.67
2022-09-17T07:31:59.528Z,98227.15
2022-09-17T07:42:05.341Z,98221.14
2022-09-17T07:52:11.107Z,98219.40
2022-09-17T08:02:20.663Z,98220.77
2022-09-17T08:12:29.482Z,98240.73
2022-09-17T08:22:35.120Z,98254.36
2022-09-17T08:32:40.744Z,98258.81
2022-09-17T08:42:54.209Z,98254.80
2022-09-17T08:53:11.547Z,98253.16
2022-09-17T09:03:30.309Z,98252.67
2022-09-17T09:13:42.230Z,98247.55
2022-09-17T09:23:56.813Z,98245.41
2022-09-17T09:34:05.347Z,98245.95
2022-09-17T09:44:16.045Z,98252.63
2022-09-17T09:54:49.711Z,98264.64
2022-09-17T10:04:55.492Z,98283.44
2022-09-17T10:15:25.924Z,98286.41
2022-09-17T10:25:34.854Z,98307.42
2022-09-17T10:35:40.703Z,98297.79
2022-09-17T10:45:55.619Z,98311.31
2022-09-17T10:56:15.346Z,98297.42
2022-09-17T11:06:41.505Z,98294.41
2022-09-17T11:16:58.622Z,98299.46
2022-09-17T11:27:14.586Z,98302.35
2022-09-17T11:37:26.666Z,98314.40
2022-09-17T11:47:36.375Z,98328.20
2022-09-17T11:57:45.599Z,98326.64
2022-09-17T12:07:57.764Z,98331.16
2022-09-17T12:18:33.610Z,98317.43
2022-09-17T12:28:49.153Z,98303.77
2022-09-17T12:39:21.459Z,98285.57
2022-09-17T12:49:48.158Z,98274.36
2022-09-17T13:00:05.258Z,98270.17
2022-09-17T13:10:47.958Z,98263.48
2022-09-17T13:21:05.649Z,98264.79
2022-09-17T13:31:11.890Z,98267.81
2022-09-17T13:41:28.181Z,98256.62
2022-09-17T13:51:52.226Z,98258.98
2022-09-17T14:02:18.412Z,98254.14
2022-09-17T14:12:56.505Z,98249.64
2022-09-17T14:23:03.403Z,98246.25
2022-09-17T14:33:17.993Z,98252.95
2022-09-17T14:43:32.854Z,98258.64
2022-09-17T14:53:38.505Z,98247.61
2022-09-17T15:03:44.256Z,98224.88
2022-09-17T15:13:53.096Z,98203.54
2022-09-17T15:24:03.758Z,98223.28
2022-09-17T15:34:12.331Z,98233.16
2022-09-17T15:44:32.074Z,98250.45
2022-09-17T15:54:39.959Z,98246.77
2022-09-17T16:04:45.597Z,98223.79
2022-09-17T16:14:53.433Z,98225.27
2022-09-17T16:24:59.108Z,98234.24
2022-09-17T16:35:05.206Z,98257.80
2022-09-17T16:45:11.898Z,98256.58
2022-09-17T16:55:18.726Z,98253.95
2022-09-17T17:05:25.600Z,98258.41
2022-09-17T17:15:31.430Z,98270.70
2022-09-17T17:25:37.337Z,98265.27
2022-09-17T17:35:43.343Z,98253.12
2022-09-17T17:45:49.005Z,98249.84
2022-09-17T17:56:02.226Z,98257.46
2022-09-17T18:06:09.368Z,98269.14
2022-09-17T18:16:17.358Z,98290.70
2022-09-17T18:26:24.717Z,98300.79
2022-09-17T18:36:33.080Z,98289.81
2022-09-17T18:46:39.233Z,98283.65
2022-09-17T18:56:45.268Z,98273.43
2022-09-17T19:06:51.144Z,98258.35
2022-09-17T19:16:56.935Z,98250.35
2022-09-17T19:27:04.238Z,98246.84
2022-09-17T19:37:10.091Z,98249.55
2022-09-17T19:47:15.724Z,98257.23
2022-09-17T19:57:21.981Z,98256.95
2022-09-17T20:07:28.805Z,98257.52
2022-09-17T20:17:34.621Z,98267.23
2022-09-17T20:27:40.425Z,98271.30
2022-09-17T20:48:12.000Z,98264.48
2022-09-17T20:58:20.259Z,98267.56
2022-09-17T21:08:26.035Z,98276.35
2022-09-17T21:18:35.105Z,98277.70
2022-09-17T21:28:44.767Z,98273.50
2022-09-17T21:38:54.878Z,98267.42
2022-09-17T21:49:03.169Z,98274.54
2022-09-17T21:59:11.136Z,98272.52
2022-09-17T22:09:19.141Z,98266.05
2022-09-17T22:19:24.198Z,98262.98
2022-09-17T22:29:32.157Z,98260.02
2022-09-17T22:39:38.270Z,98248.16
2022-09-17T22:49:43.954Z,98247.25
2022-09-17T22:59:49.754Z,98237.95
2022-09-17T23:09:55.422Z,98227.29
2022-09-17T23:20:01.126Z,98228.36
2022-09-17T23:30:07.742Z,98225.63
2022-09-17T23:40:13.639Z,98223.69
2022-09-17T23:50:19.677Z,98219.73
